Time,TemperatureF,DewpointF,PressureIn,WindDirection,WindDirectionDegrees,WindSpeedMPH,WindSpeedGustMPH,Humidity,HourlyPrecipIn,Conditions,Clouds,dailyrainin,SoftwareType,DateUTC
2013-01-17 00:02:00,46.8,35.2,30.19,NNE,24,0.0,4.0,64,0.00,,,0.00,meteohub,2013-01-17 08:02:00,
2013-01-17 00:07:00,46.8,35.2,30.19,NNE,24,0.0,4.0,64,0.00,,,0.00,meteohub,2013-01-17 08:07:00,
2013-01-17 00:12:00,46.4,35.6,30.18,NNE,24,0.0,2.0,66,0.00,,,0.00,meteohub,2013-01-17 08:12:00,
2013-01-17 00:17:00,46.0,35.8,30.18,NNE,24,0.0,2.0,67,0.00,,,0.00,meteohub,2013-01-17 08:17:00,
2013-01-17 00:22:00,45.9,35.6,30.18,NNE,24,0.0,2.0,67,0.00,,,0.00,meteohub,2013-01-17 08:22:00,
2013-01-17 00:27:00,45.9,34.7,30.18,SE,125,0.0,2.0,65,0.00,,,0.00,meteohub,2013-01-17 08:27:00,
2013-01-17 00:32:00,46.2,34.3,30.18,SE,140,0.0,2.0,63,0.00,,,0.00,meteohub,2013-01-17 08:32:00,
2013-01-17 00:37:00,46.6,33.8,30.18,SE,140,0.0,2.0,61,0.00,,,0.00,meteohub,2013-01-17 08:37:00,
2013-01-17 00:42:00,46.6,34.3,30.18,NE,51,0.0,2.0,62,0.00,,,0.00,meteohub,2013-01-17 08:42:00,
2013-01-17 00:47:00,46.6,35.1,30.19,NE,51,0.0,2.0,64,0.00,,,0.00,meteohub,2013-01-17 08:47:00,
2013-01-17 00:52:00,46.2,34.3,30.19,NE,51,0.0,2.0,63,0.00,,,0.00,meteohub,2013-01-17 08:52:00,
2013-01-17 00:57:00,46.2,32.7,30.19,NE,51,0.0,2.0,59,0.00,,,0.00,meteohub,2013-01-17 08:57:00,
2013-01-17 01:02:00,46.8,34.5,30.19,NE,51,0.0,2.0,62,0.00,,,0.00,meteohub,2013-01-17 09:02:00,
2013-01-17 01:07:00,46.0,34.9,30.19,NE,51,0.0,1.0,65,0.00,,,0.00,meteohub,2013-01-17 09:07:00,
2013-01-17 01:12:00,45.5,34.9,30.19,NE,51,0.0,1.0,66,0.00,,,0.00,meteohub,2013-01-17 09:12:00,
2013-01-17 01:17:00,45.3,34.7,30.19,NE,51,0.0,1.0,66,0.00,,,0.00,meteohub,2013-01-17 09:17:00,
2013-01-17 01:22:00,45.1,34.2,30.19,NE,51,0.0,0.0,65,0.00,,,0.00,meteohub,2013-01-17 09:22:00,
2013-01-17 01:28:00,45.3,33.8,30.19,NE,51,0.0,1.0,64,0.00,,,0.00,meteohub,2013-01-17 09:28:00,
2013-01-17 01:33:00,45.3,33.8,30.19,NE,51,0.0,1.0,64,0.00,,,0.00,meteohub,2013-01-17 09:33:00,
2013-01-17 01:38:00,45.3,33.4,30.19,NE,51,0.0,1.0,63,0.00,,,0.00,meteohub,2013-01-17 09:38:00,
2013-01-17 01:43:00,45.1,33.6,30.19,NE,51,0.0,1.0,64,0.00,,,0.00,meteohub,2013-01-17 09:43:00,
2013-01-17 01:48:00,45.3,33.4,30.19,NE,51,0.0,1.0,63,0.00,,,0.00,meteohub,2013-01-17 09:48:00,
2013-01-17 01:53:00,45.5,34.0,30.19,NE,51,0.0,1.0,64,0.00,,,0.00,meteohub,2013-01-17 09:53:00,
2013-01-17 01:58:00,45.3,33.4,30.19,ESE,121,1.0,1.0,63,0.00,,,0.00,meteohub,2013-01-17 09:58:00,
2013-01-17 02:03:00,45.3,33.1,30.19,North,9,0.0,1.0,62,0.00,,,0.00,meteohub,2013-01-17 10:03:00,
2013-01-17 02:08:00,45.3,31.8,30.19,East,101,0.0,2.0,59,0.00,,,0.00,meteohub,2013-01-17 10:08:00,
2013-01-17 02:13:00,45.7,33.1,30.19,East,101,0.0,2.0,61,0.00,,,0.00,meteohub,2013-01-17 10:13:00,
2013-01-17 02:19:00,45.3,31.8,30.19,East,101,0.0,2.0,59,0.00,,,0.00,meteohub,2013-01-17 10:19:00,
2013-01-17 02:24:00,45.5,32.0,30.19,NE,48,1.0,1.0,59,0.00,,,0.00,meteohub,2013-01-17 10:24:00,
2013-01-17 02:29:00,45.1,31.6,30.19,NE,48,0.0,3.0,59,0.00,,,0.00,meteohub,2013-01-17 10:29:00,
2013-01-17 02:34:00,45.0,31.1,30.18,NE,48,0.0,3.0,58,0.00,,,0.00,meteohub,2013-01-17 10:34:00,
2013-01-17 02:39:00,45.1,31.6,30.18,NE,47,0.0,3.0,59,0.00,,,0.00,meteohub,2013-01-17 10:39:00,
2013-01-17 02:44:00,45.0,31.1,30.18,NE,47,0.0,2.0,58,0.00,,,0.00,meteohub,2013-01-17 10:44:00,
2013-01-17 02:49:00,45.3,30.0,30.18,NE,48,0.0,1.0,55,0.00,,,0.00,meteohub,2013-01-17 10:49:00,
2013-01-17 02:54:00,46.0,29.8,30.18,NE,48,0.0,1.0,53,0.00,,,0.00,meteohub,2013-01-17 10:54:00,
2013-01-17 03:00:00,46.0,31.6,30.18,NE,47,0.0,2.0,57,0.00,,,0.00,meteohub,2013-01-17 11:00:00,
2013-01-17 03:05:00,45.9,31.1,30.18,NE,48,0.0,2.0,56,0.00,,,0.00,meteohub,2013-01-17 11:05:00,
2013-01-17 03:10:00,45.7,30.9,30.18,SE,128,0.0,2.0,56,0.00,,,0.00,meteohub,2013-01-17 11:10:00,
2013-01-17 03:15:00,45.1,27.7,30.18,ESE,113,0.0,4.0,50,0.00,,,0.00,meteohub,2013-01-17 11:15:00,
2013-01-17 03:20:00,45.7,30.4,30.17,North,350,2.0,4.0,55,0.00,,,0.00,meteohub,2013-01-17 11:20:00,
2013-01-17 03:25:00,45.3,30.6,30.18,North,0,0.0,4.0,56,0.00,,,0.00,meteohub,2013-01-17 11:25:00,
2013-01-17 03:30:00,45.0,31.5,30.18,North,0,0.0,4.0,59,0.00,,,0.00,meteohub,2013-01-17 11:30:00,
2013-01-17 03:36:00,44.4,31.5,30.18,East,100,0.0,4.0,60,0.00,,,0.00,meteohub,2013-01-17 11:36:00,
2013-01-17 03:41:00,44.1,31.1,30.18,SE,144,0.0,2.0,60,0.00,,,0.00,meteohub,2013-01-17 11:41:00,
2013-01-17 03:46:00,43.9,31.3,30.18,SE,144,0.0,2.0,61,0.00,,,0.00,meteohub,2013-01-17 11:46:00,
2013-01-17 03:51:00,43.5,30.6,30.18,SE,144,0.0,2.0,60,0.00,,,0.00,meteohub,2013-01-17 11:51:00,
2013-01-17 03:56:00,43.5,30.6,30.18,SE,144,0.0,1.0,60,0.00,,,0.00,meteohub,2013-01-17 11:56:00,
2013-01-17 04:01:00,43.5,31.3,30.19,South,171,0.0,1.0,62,0.00,,,0.00,meteohub,2013-01-17 12:01:00,
2013-01-17 04:06:00,43.5,30.2,30.18,South,171,0.0,1.0,59,0.00,,,0.00,meteohub,2013-01-17 12:06:00,
2013-01-17 04:11:00,43.9,31.3,30.18,South,171,0.0,1.0,61,0.00,,,0.00,meteohub,2013-01-17 12:11:00,
2013-01-17 04:16:00,43.2,31.5,30.19,NE,35,0.0,7.0,63,0.00,,,0.00,meteohub,2013-01-17 12:16:00,
2013-01-17 04:21:00,42.6,31.3,30.19,NE,35,1.0,7.0,64,0.00,,,0.00,meteohub,2013-01-17 12:21:00,
2013-01-17 04:27:00,42.8,31.8,30.19,NNE,26,0.0,7.0,65,0.00,,,0.00,meteohub,2013-01-17 12:27:00,
2013-01-17 04:32:00,43.0,31.3,30.19,NNE,26,0.0,5.0,63,0.00,,,0.00,meteohub,2013-01-17 12:32:00,
2013-01-17 04:37:00,43.2,30.6,30.19,NNE,26,0.0,5.0,61,0.00,,,0.00,meteohub,2013-01-17 12:37:00,
2013-01-17 04:42:00,43.5,29.7,30.18,SSE,153,0.0,5.0,58,0.00,,,0.00,meteohub,2013-01-17 12:42:00,
2013-01-17 04:47:00,44.2,30.0,30.18,South,170,0.0,1.0,57,0.00,,,0.00,meteohub,2013-01-17 12:47:00,
2013-01-17 04:52:00,44.8,30.0,30.18,South,170,0.0,4.0,56,0.00,,,0.00,meteohub,2013-01-17 12:52:00,
2013-01-17 04:57:00,45.1,30.7,30.18,South,170,0.0,4.0,57,0.00,,,0.00,meteohub,2013-01-17 12:57:00,
2013-01-17 05:02:00,45.0,31.1,30.18,South,170,0.0,1.0,58,0.00,,,0.00,meteohub,2013-01-17 13:02:00,
2013-01-17 05:07:00,44.8,30.9,30.17,South,170,0.0,1.0,58,0.00,,,0.00,meteohub,2013-01-17 13:07:00,
2013-01-17 05:12:00,44.2,31.6,30.17,South,170,0.0,1.0,61,0.00,,,0.00,meteohub,2013-01-17 13:12:00,
2013-01-17 05:17:00,43.7,31.5,30.17,South,170,0.0,1.0,62,0.00,,,0.00,meteohub,2013-01-17 13:17:00,
2013-01-17 05:22:00,43.0,31.6,30.17,South,170,0.0,0.0,64,0.00,,,0.00,meteohub,2013-01-17 13:22:00,
2013-01-17 05:27:00,42.1,31.1,30.17,South,170,0.0,1.0,65,0.00,,,0.00,meteohub,2013-01-17 13:27:00,
2013-01-17 05:32:00,41.7,31.3,30.17,South,170,0.0,1.0,66,0.00,,,0.00,meteohub,2013-01-17 13:32:00,
2013-01-17 05:37:00,41.4,31.6,30.17,NE,49,0.0,0.0,68,0.00,,,0.00,meteohub,2013-01-17 13:37:00,
2013-01-17 05:42:00,41.2,30.4,30.17,NNE,32,0.0,1.0,65,0.00,,,0.00,meteohub,2013-01-17 13:42:00,
2013-01-17 05:47:00,42.3,31.3,30.17,North,5,0.0,1.0,65,0.00,,,0.00,meteohub,2013-01-17 13:47:00,
2013-01-17 05:52:00,41.7,31.3,30.17,North,5,0.0,1.0,66,0.00,,,0.00,meteohub,2013-01-17 13:52:00,
2013-01-17 05:57:00,41.5,31.1,30.17,North,5,0.0,1.0,66,0.00,,,0.00,meteohub,2013-01-17 13:57:00,
2013-01-17 06:02:00,41.7,30.7,30.18,North,5,0.0,1.0,65,0.00,,,0.00,meteohub,2013-01-17 14:02:00,
2013-01-17 06:07:00,42.1,30.4,30.18,North,5,0.0,0.0,63,0.00,,,0.00,meteohub,2013-01-17 14:07:00,
2013-01-17 06:12:00,42.6,29.7,30.18,North,5,0.0,0.0,60,0.00,,,0.00,meteohub,2013-01-17 14:12:00,
2013-01-17 06:17:00,43.3,29.5,30.18,North,5,0.0,0.0,58,0.00,,,0.00,meteohub,2013-01-17 14:17:00,
2013-01-17 06:22:00,44.1,28.0,30.18,North,5,0.0,0.0,53,0.00,,,0.00,meteohub,2013-01-17 14:22:00,
2013-01-17 06:27:00,44.4,27.9,30.18,North,5,0.0,0.0,52,0.00,,,0.00,meteohub,2013-01-17 14:27:00,
2013-01-17 06:32:00,45.0,27.9,30.18,North,5,0.0,0.0,51,0.00,,,0.00,meteohub,2013-01-17 14:32:00,
2013-01-17 06:37:00,45.3,28.2,30.18,North,5,0.0,0.0,51,0.00,,,0.00,meteohub,2013-01-17 14:37:00,
2013-01-17 06:42:00,45.3,30.9,30.18,North,5,0.0,0.0,57,0.00,,,0.00,meteohub,2013-01-17 14:42:00,
2013-01-17 06:47:00,44.4,31.5,30.18,North,5,0.0,0.0,60,0.00,,,0.00,meteohub,2013-01-17 14:47:00,
2013-01-17 06:52:00,42.6,30.9,30.19,NNE,15,0.0,0.0,63,0.00,,,0.00,meteohub,2013-01-17 14:52:00,
2013-01-17 06:57:00,41.4,30.6,30.18,NNE,15,0.0,1.0,65,0.00,,,0.00,meteohub,2013-01-17 14:57:00,
2013-01-17 07:02:00,41.2,29.5,30.19,NNE,15,0.0,1.0,63,0.00,,,0.00,meteohub,2013-01-17 15:02:00,
2013-01-17 07:07:00,41.2,30.7,30.19,NNE,15,0.0,0.0,66,0.00,,,0.00,meteohub,2013-01-17 15:07:00,
2013-01-17 07:12:00,40.8,30.4,30.19,NNE,15,0.0,0.0,66,0.00,,,0.00,meteohub,2013-01-17 15:12:00,
2013-01-17 07:17:00,40.8,30.4,30.19,NNE,15,0.0,0.0,66,0.00,,,0.00,meteohub,2013-01-17 15:17:00,
2013-01-17 07:22:00,40.8,30.4,30.19,SSE,148,0.0,0.0,66,0.00,,,0.00,meteohub,2013-01-17 15:22:00,
2013-01-17 07:27:00,40.8,30.7,30.19,SSE,149,0.0,0.0,67,0.00,,,0.00,meteohub,2013-01-17 15:27:00,
2013-01-17 07:32:00,40.8,30.7,30.20,SSE,148,0.0,0.0,67,0.00,,,0.00,meteohub,2013-01-17 15:32:00,
2013-01-17 07:37:00,40.8,30.4,30.20,SSE,148,0.0,0.0,66,0.00,,,0.00,meteohub,2013-01-17 15:37:00,
2013-01-17 07:42:00,41.2,30.4,30.20,SSE,148,0.0,0.0,65,0.00,,,0.00,meteohub,2013-01-17 15:42:00,
2013-01-17 07:47:00,41.5,30.2,30.20,SSE,148,0.0,0.0,64,0.00,,,0.00,meteohub,2013-01-17 15:47:00,
2013-01-17 07:52:00,42.1,30.4,30.20,SSE,149,0.0,0.0,63,0.00,,,0.00,meteohub,2013-01-17 15:52:00,
2013-01-17 07:57:00,42.6,30.2,30.20,SSE,148,0.0,0.0,61,0.00,,,0.00,meteohub,2013-01-17 15:57:00,
2013-01-17 08:02:00,43.5,30.6,30.21,SW,219,0.0,0.0,60,0.00,,,0.00,meteohub,2013-01-17 16:02:00,
2013-01-17 08:07:00,44.2,30.4,30.21,SW,219,0.0,0.0,58,0.00,,,0.00,meteohub,2013-01-17 16:07:00,
2013-01-17 08:12:00,44.8,28.8,30.21,SW,219,0.0,0.0,53,0.00,,,0.00,meteohub,2013-01-17 16:12:00,
2013-01-17 08:17:00,45.9,30.2,30.21,SW,219,0.0,0.0,54,0.00,,,0.00,meteohub,2013-01-17 16:17:00,
2013-01-17 08:22:00,46.6,30.7,30.21,SW,219,0.0,0.0,54,0.00,,,0.00,meteohub,2013-01-17 16:22:00,
2013-01-17 08:27:00,46.9,30.2,30.21,SW,219,0.0,0.0,52,0.00,,,0.00,meteohub,2013-01-17 16:27:00,
2013-01-17 08:32:00,47.7,32.4,30.22,SW,219,0.0,0.0,55,0.00,,,0.00,meteohub,2013-01-17 16:32:00,
2013-01-17 08:37:00,47.8,32.5,30.22,SW,219,0.0,0.0,55,0.00,,,0.00,meteohub,2013-01-17 16:37:00,
2013-01-17 08:42:00,48.0,31.6,30.22,SW,219,0.0,0.0,53,0.00,,,0.00,meteohub,2013-01-17 16:42:00,
2013-01-17 08:47:00,48.4,32.0,30.22,SW,219,0.0,0.0,53,0.00,,,0.00,meteohub,2013-01-17 16:47:00,
2013-01-17 08:52:00,48.7,32.4,30.22,SW,219,0.0,0.0,53,0.00,,,0.00,meteohub,2013-01-17 16:52:00,
2013-01-17 08:57:00,49.3,33.8,30.22,SW,219,0.0,0.0,55,0.00,,,0.00,meteohub,2013-01-17 16:57:00,
2013-01-17 09:02:00,49.8,34.7,30.22,SW,219,0.0,0.0,56,0.00,,,0.00,meteohub,2013-01-17 17:02:00,
2013-01-17 09:07:00,50.5,35.1,30.22,NW,308,0.0,0.0,55,0.00,,,0.00,meteohub,2013-01-17 17:07:00,
2013-01-17 09:12:00,51.4,35.8,30.23,NW,313,0.0,0.0,55,0.00,,,0.00,meteohub,2013-01-17 17:12:00,
2013-01-17 09:17:00,52.2,33.6,30.23,NW,313,0.0,0.0,49,0.00,,,0.00,meteohub,2013-01-17 17:17:00,
2013-01-17 09:22:00,53.2,34.0,30.23,NW,313,0.0,0.0,48,0.00,,,0.00,meteohub,2013-01-17 17:22:00,
2013-01-17 09:27:00,54.3,31.1,30.23,NW,313,0.0,0.0,41,0.00,,,0.00,meteohub,2013-01-17 17:27:00,
2013-01-17 09:32:00,55.9,30.0,30.23,NW,313,0.0,0.0,37,0.00,,,0.00,meteohub,2013-01-17 17:32:00,
2013-01-17 09:37:00,57.4,30.0,30.23,NW,313,0.0,0.0,35,0.00,,,0.00,meteohub,2013-01-17 17:37:00,
2013-01-17 09:42:00,58.8,32.0,30.22,NW,313,0.0,0.0,36,0.00,,,0.00,meteohub,2013-01-17 17:42:00,
2013-01-17 09:47:00,60.3,33.8,30.23,NW,313,0.0,0.0,37,0.00,,,0.00,meteohub,2013-01-17 17:47:00,
2013-01-17 09:52:00,61.3,33.4,30.22,NW,313,0.0,0.0,35,0.00,,,0.00,meteohub,2013-01-17 17:52:00,
2013-01-17 09:57:00,62.4,32.9,30.22,NW,313,0.0,0.0,33,0.00,,,0.00,meteohub,2013-01-17 17:57:00,
2013-01-17 10:02:00,63.3,31.3,30.22,NW,312,0.0,1.0,30,0.00,,,0.00,meteohub,2013-01-17 18:02:00,
2013-01-17 10:07:00,64.2,29.5,30.22,NW,312,0.0,1.0,27,0.00,,,0.00,meteohub,2013-01-17 18:07:00,
2013-01-17 10:12:00,65.5,29.7,30.22,West,271,0.0,1.0,26,0.00,,,0.00,meteohub,2013-01-17 18:12:00,
2013-01-17 10:17:00,66.2,29.3,30.22,West,271,0.0,1.0,25,0.00,,,0.00,meteohub,2013-01-17 18:17:00,
2013-01-17 10:22:00,66.9,25.7,30.21,West,271,0.0,1.0,21,0.00,,,0.00,meteohub,2013-01-17 18:22:00,
2013-01-17 10:27:00,67.5,28.4,30.21,SW,227,1.0,1.0,23,0.00,,,0.00,meteohub,2013-01-17 18:27:00,
2013-01-17 10:32:00,68.0,28.8,30.20,SW,227,0.0,3.0,23,0.00,,,0.00,meteohub,2013-01-17 18:32:00,
2013-01-17 10:37:00,68.4,28.0,30.20,SSW,192,3.0,3.0,22,0.00,,,0.00,meteohub,2013-01-17 18:37:00,
2013-01-17 10:42:00,68.9,29.7,30.20,South,188,0.0,3.0,23,0.00,,,0.00,meteohub,2013-01-17 18:42:00,
2013-01-17 10:47:00,69.3,32.0,30.20,South,188,0.0,3.0,25,0.00,,,0.00,meteohub,2013-01-17 18:47:00,
2013-01-17 10:52:00,70.0,30.6,30.19,South,188,0.0,3.0,23,0.00,,,0.00,meteohub,2013-01-17 18:52:00,
2013-01-17 10:57:00,70.3,31.8,30.19,South,188,0.0,2.0,24,0.00,,,0.00,meteohub,2013-01-17 18:57:00,
2013-01-17 11:02:00,71.1,30.2,30.18,South,188,0.0,2.0,22,0.00,,,0.00,meteohub,2013-01-17 19:02:00,
2013-01-17 11:07:00,71.8,29.7,30.18,NW,315,0.0,2.0,21,0.00,,,0.00,meteohub,2013-01-17 19:07:00,
2013-01-17 11:12:00,72.3,27.7,30.18,NW,315,0.0,2.0,19,0.00,,,0.00,meteohub,2013-01-17 19:12:00,
2013-01-17 11:17:00,72.9,29.5,30.18,NW,315,0.0,2.0,20,0.00,,,0.00,meteohub,2013-01-17 19:17:00,
2013-01-17 11:22:00,73.6,27.5,30.17,North,355,2.0,4.0,18,0.00,,,0.00,meteohub,2013-01-17 19:22:00,
2013-01-17 11:27:00,73.8,27.7,30.17,NNE,13,3.0,4.0,18,0.00,,,0.00,meteohub,2013-01-17 19:27:00,
2013-01-17 11:32:00,73.8,23.2,30.17,NNW,340,4.0,6.0,15,0.00,,,0.00,meteohub,2013-01-17 19:32:00,
2013-01-17 11:37:00,73.9,25.0,30.17,NNW,335,0.0,7.0,16,0.00,,,0.00,meteohub,2013-01-17 19:37:00,
2013-01-17 11:42:00,74.1,25.0,30.16,NNW,338,1.0,7.0,16,0.00,,,0.00,meteohub,2013-01-17 19:42:00,
2013-01-17 11:47:00,74.3,25.2,30.16,NW,324,2.0,5.0,16,0.00,,,0.00,meteohub,2013-01-17 19:47:00,
2013-01-17 11:52:00,74.5,22.1,30.16,NNW,332,1.0,5.0,14,0.00,,,0.00,meteohub,2013-01-17 19:52:00,
2013-01-17 11:57:00,74.7,23.9,30.15,NW,306,0.0,4.0,15,0.00,,,0.00,meteohub,2013-01-17 19:57:00,
2013-01-17 12:02:00,74.8,24.1,30.15,WNW,298,0.0,4.0,15,0.00,,,0.00,meteohub,2013-01-17 20:02:00,
2013-01-17 12:07:00,75.0,22.6,30.14,NNW,340,2.0,2.0,14,0.00,,,0.00,meteohub,2013-01-17 20:07:00,
2013-01-17 12:12:00,75.4,22.8,30.14,NNW,327,0.0,4.0,14,0.00,,,0.00,meteohub,2013-01-17 20:12:00,
2013-01-17 12:17:00,75.7,23.2,30.14,NW,315,0.0,4.0,14,0.00,,,0.00,meteohub,2013-01-17 20:17:00,
2013-01-17 12:22:00,76.1,23.4,30.13,WNW,296,0.0,4.0,14,0.00,,,0.00,meteohub,2013-01-17 20:22:00,
2013-01-17 12:27:00,76.6,22.1,30.13,WSW,238,0.0,4.0,13,0.00,,,0.00,meteohub,2013-01-17 20:27:00,
2013-01-17 12:32:00,77.2,22.5,30.13,SE,137,0.0,4.0,13,0.00,,,0.00,meteohub,2013-01-17 20:32:00,
2013-01-17 12:37:00,77.7,23.0,30.13,NE,49,1.0,2.0,13,0.00,,,0.00,meteohub,2013-01-17 20:37:00,
2013-01-17 12:42:00,78.3,21.6,30.12,North,355,0.0,2.0,12,0.00,,,0.00,meteohub,2013-01-17 20:42:00,
2013-01-17 12:47:00,78.3,21.6,30.12,SW,224,1.0,2.0,12,0.00,,,0.00,meteohub,2013-01-17 20:47:00,
2013-01-17 12:52:00,78.3,19.4,30.12,SW,215,0.0,4.0,11,0.00,,,0.00,meteohub,2013-01-17 20:52:00,
2013-01-17 12:57:00,78.4,25.3,30.12,ESE,106,0.0,4.0,14,0.00,,,0.00,meteohub,2013-01-17 20:57:00,
2013-01-17 13:02:00,79.0,22.1,30.11,SW,236,2.0,4.0,12,0.00,,,0.00,meteohub,2013-01-17 21:02:00,
2013-01-17 13:07:00,79.2,24.1,30.11,SW,234,0.0,6.0,13,0.00,,,0.00,meteohub,2013-01-17 21:07:00,
2013-01-17 13:12:00,79.3,22.3,30.11,SSW,205,0.0,6.0,12,0.00,,,0.00,meteohub,2013-01-17 21:12:00,
2013-01-17 13:17:00,79.7,22.6,30.11,SSW,213,0.0,6.0,12,0.00,,,0.00,meteohub,2013-01-17 21:17:00,
2013-01-17 13:22:00,80.1,22.8,30.10,WSW,250,1.0,4.0,12,0.00,,,0.00,meteohub,2013-01-17 21:22:00,
2013-01-17 13:27:00,80.2,25.0,30.10,WSW,237,2.0,4.0,13,0.00,,,0.00,meteohub,2013-01-17 21:27:00,
2013-01-17 13:32:00,80.4,25.2,30.10,WSW,238,1.0,4.0,13,0.00,,,0.00,meteohub,2013-01-17 21:32:00,
2013-01-17 13:37:00,80.8,23.4,30.10,SSW,208,2.0,3.0,12,0.00,,,0.00,meteohub,2013-01-17 21:37:00,
2013-01-17 13:42:00,81.0,23.5,30.10,SSW,208,0.0,3.0,12,0.00,,,0.00,meteohub,2013-01-17 21:42:00,
2013-01-17 13:47:00,81.1,23.7,30.10,SSW,205,0.0,3.0,12,0.00,,,0.00,meteohub,2013-01-17 21:47:00,
2013-01-17 13:52:00,81.1,25.7,30.10,SW,221,1.0,3.0,13,0.00,,,0.00,meteohub,2013-01-17 21:52:00,
2013-01-17 13:57:00,81.1,23.7,30.10,SW,226,0.0,3.0,12,0.00,,,0.00,meteohub,2013-01-17 21:57:00,
2013-01-17 14:02:00,80.8,23.4,30.09,SW,229,0.0,5.0,12,0.00,,,0.00,meteohub,2013-01-17 22:02:00,
2013-01-17 14:07:00,80.6,25.2,30.09,WNW,295,0.0,5.0,13,0.00,,,0.00,meteohub,2013-01-17 22:07:00,
2013-01-17 14:12:00,80.6,25.2,30.10,WNW,295,0.0,5.0,13,0.00,,,0.00,meteohub,2013-01-17 22:12:00,
2013-01-17 14:17:00,80.8,28.8,30.10,SW,227,0.0,4.0,15,0.00,,,0.00,meteohub,2013-01-17 22:17:00,
2013-01-17 14:22:00,81.0,27.3,30.10,SW,221,1.0,4.0,14,0.00,,,0.00,meteohub,2013-01-17 22:22:00,
2013-01-17 14:27:00,81.1,27.5,30.10,SSW,208,0.0,4.0,14,0.00,,,0.00,meteohub,2013-01-17 22:27:00,
2013-01-17 14:32:00,81.3,29.3,30.10,SSW,208,0.0,2.0,15,0.00,,,0.00,meteohub,2013-01-17 22:32:00,
2013-01-17 14:37:00,81.3,27.5,30.10,SSW,208,0.0,2.0,14,0.00,,,0.00,meteohub,2013-01-17 22:37:00,
2013-01-17 14:42:00,81.5,27.7,30.10,South,182,0.0,2.0,14,0.00,,,0.00,meteohub,2013-01-17 22:42:00,
2013-01-17 14:47:00,81.1,27.5,30.10,SW,215,1.0,3.0,14,0.00,,,0.00,meteohub,2013-01-17 22:47:00,
2013-01-17 14:52:00,80.8,28.8,30.10,South,169,1.0,3.0,15,0.00,,,0.00,meteohub,2013-01-17 22:52:00,
2013-01-17 14:57:00,80.4,26.8,30.10,SSW,199,0.0,3.0,14,0.00,,,0.00,meteohub,2013-01-17 22:57:00,
2013-01-17 15:02:00,80.4,28.6,30.10,WSW,243,1.0,2.0,15,0.00,,,0.00,meteohub,2013-01-17 23:02:00,
2013-01-17 15:07:00,80.2,30.0,30.10,SW,216,0.0,3.0,16,0.00,,,0.00,meteohub,2013-01-17 23:07:00,
2013-01-17 15:12:00,80.2,28.4,30.10,WNW,293,0.0,4.0,15,0.00,,,0.00,meteohub,2013-01-17 23:12:00,
2013-01-17 15:17:00,80.6,28.8,30.10,South,190,0.0,4.0,15,0.00,,,0.00,meteohub,2013-01-17 23:17:00,
2013-01-17 15:22:00,80.6,28.8,30.10,SW,221,0.0,2.0,15,0.00,,,0.00,meteohub,2013-01-17 23:22:00,
2013-01-17 15:27:00,80.4,28.6,30.11,SW,215,0.0,2.0,15,0.00,,,0.00,meteohub,2013-01-17 23:27:00,
2013-01-17 15:32:00,80.2,28.4,30.11,South,190,2.0,2.0,15,0.00,,,0.00,meteohub,2013-01-17 23:32:00,
2013-01-17 15:37:00,80.1,28.2,30.11,SW,232,1.0,5.0,15,0.00,,,0.00,meteohub,2013-01-17 23:37:00,
2013-01-17 15:42:00,80.1,28.2,30.11,SW,227,0.0,5.0,15,0.00,,,0.00,meteohub,2013-01-17 23:42:00,
2013-01-17 15:47:00,80.1,28.2,30.11,SW,227,0.0,5.0,15,0.00,,,0.00,meteohub,2013-01-17 23:47:00,
2013-01-17 15:52:00,79.9,28.0,30.11,South,176,0.0,4.0,15,0.00,,,0.00,meteohub,2013-01-17 23:52:00,
2013-01-17 15:57:00,79.5,27.9,30.11,SSW,198,0.0,2.0,15,0.00,,,0.00,meteohub,2013-01-17 23:57:00,
2013-01-17 16:02:00,79.2,29.1,30.12,SSW,196,0.0,2.0,16,0.00,,,0.00,meteohub,2013-01-18 00:02:00,
2013-01-17 16:07:00,79.0,28.9,30.12,South,180,0.0,2.0,16,0.00,,,0.00,meteohub,2013-01-18 00:07:00,
2013-01-17 16:12:00,78.6,27.1,30.12,South,180,1.0,1.0,15,0.00,,,0.00,meteohub,2013-01-18 00:12:00,
2013-01-17 16:17:00,78.3,26.8,30.12,South,180,0.0,1.0,15,0.00,,,0.00,meteohub,2013-01-18 00:17:00,
2013-01-17 16:22:00,77.7,26.4,30.12,South,181,0.0,1.0,15,0.00,,,0.00,meteohub,2013-01-18 00:22:00,
2013-01-17 16:27:00,77.4,27.7,30.12,South,180,0.0,2.0,16,0.00,,,0.00,meteohub,2013-01-18 00:27:00,
2013-01-17 16:32:00,77.2,27.5,30.12,South,180,0.0,2.0,16,0.00,,,0.00,meteohub,2013-01-18 00:32:00,
2013-01-17 16:37:00,76.6,28.6,30.12,South,180,0.0,2.0,17,0.00,,,0.00,meteohub,2013-01-18 00:37:00,
2013-01-17 16:42:00,76.3,28.2,30.12,South,180,0.0,1.0,17,0.00,,,0.00,meteohub,2013-01-18 00:42:00,
2013-01-17 16:47:00,75.4,28.9,30.13,South,180,0.0,1.0,18,0.00,,,0.00,meteohub,2013-01-18 00:47:00,
2013-01-17 16:52:00,74.7,28.4,30.13,South,180,0.0,1.0,18,0.00,,,0.00,meteohub,2013-01-18 00:52:00,
2013-01-17 16:57:00,73.9,27.7,30.13,South,180,0.0,1.0,18,0.00,,,0.00,meteohub,2013-01-18 00:57:00,
2013-01-17 17:02:00,73.2,28.4,30.13,South,180,0.0,0.0,19,0.00,,,0.00,meteohub,2013-01-18 01:02:00,
2013-01-17 17:07:00,72.3,28.9,30.13,South,180,0.0,0.0,20,0.00,,,0.00,meteohub,2013-01-18 01:07:00,
2013-01-17 17:12:00,71.8,29.7,30.14,South,180,0.0,0.0,21,0.00,,,0.00,meteohub,2013-01-18 01:12:00,
2013-01-17 17:17:00,70.9,28.9,30.14,South,180,0.0,0.0,21,0.00,,,0.00,meteohub,2013-01-18 01:17:00,
2013-01-17 17:22:00,70.0,28.2,30.14,South,180,0.0,0.0,21,0.00,,,0.00,meteohub,2013-01-18 01:22:00,
2013-01-17 17:27:00,69.3,28.8,30.14,South,180,0.0,0.0,22,0.00,,,0.00,meteohub,2013-01-18 01:27:00,
2013-01-17 17:32:00,68.4,28.0,30.14,South,180,0.0,0.0,22,0.00,,,0.00,meteohub,2013-01-18 01:32:00,
2013-01-17 17:37:00,67.6,28.6,30.15,South,180,0.0,0.0,23,0.00,,,0.00,meteohub,2013-01-18 01:37:00,
2013-01-17 17:42:00,67.1,28.0,30.15,South,180,0.0,0.0,23,0.00,,,0.00,meteohub,2013-01-18 01:42:00,
2013-01-17 17:47:00,66.6,27.7,30.15,South,180,0.0,0.0,23,0.00,,,0.00,meteohub,2013-01-18 01:47:00,
2013-01-17 17:52:00,66.2,27.3,30.15,South,180,0.0,0.0,23,0.00,,,0.00,meteohub,2013-01-18 01:52:00,
2013-01-17 17:57:00,65.8,28.0,30.15,South,180,0.0,0.0,24,0.00,,,0.00,meteohub,2013-01-18 01:57:00,
2013-01-17 18:02:00,65.5,28.8,30.15,South,180,0.0,0.0,25,0.00,,,0.00,meteohub,2013-01-18 02:02:00,
2013-01-17 18:07:00,64.9,28.2,30.15,South,180,0.0,0.0,25,0.00,,,0.00,meteohub,2013-01-18 02:07:00,
2013-01-17 18:12:00,64.6,28.0,30.15,South,180,0.0,1.0,25,0.00,,,0.00,meteohub,2013-01-18 02:12:00,
2013-01-17 18:17:00,64.2,27.7,30.15,South,180,0.0,1.0,25,0.00,,,0.00,meteohub,2013-01-18 02:17:00,
2013-01-17 18:22:00,64.0,28.4,30.15,South,180,0.0,1.0,26,0.00,,,0.00,meteohub,2013-01-18 02:22:00,
2013-01-17 18:27:00,63.7,28.2,30.16,South,180,0.0,0.0,26,0.00,,,0.00,meteohub,2013-01-18 02:27:00,
2013-01-17 18:32:00,63.3,28.8,30.16,South,180,0.0,0.0,27,0.00,,,0.00,meteohub,2013-01-18 02:32:00,
2013-01-17 18:37:00,63.0,28.4,30.16,South,180,0.0,0.0,27,0.00,,,0.00,meteohub,2013-01-18 02:37:00,
2013-01-17 18:42:00,62.6,28.2,30.16,South,180,0.0,0.0,27,0.00,,,0.00,meteohub,2013-01-18 02:42:00,
2013-01-17 18:47:00,62.2,27.9,30.16,South,180,0.0,0.0,27,0.00,,,0.00,meteohub,2013-01-18 02:47:00,
2013-01-17 18:52:00,62.1,28.6,30.16,South,180,0.0,0.0,28,0.00,,,0.00,meteohub,2013-01-18 02:52:00,
2013-01-17 18:57:00,61.9,28.4,30.16,South,180,0.0,0.0,28,0.00,,,0.00,meteohub,2013-01-18 02:57:00,
2013-01-17 19:02:00,61.5,28.9,30.16,South,180,0.0,0.0,29,0.00,,,0.00,meteohub,2013-01-18 03:02:00,
2013-01-17 19:07:00,61.2,29.5,30.16,South,180,0.0,0.0,30,0.00,,,0.00,meteohub,2013-01-18 03:07:00,
2013-01-17 19:12:00,60.6,29.8,30.16,South,180,0.0,0.0,31,0.00,,,0.00,meteohub,2013-01-18 03:12:00,
2013-01-17 19:17:00,60.4,29.7,30.16,South,180,0.0,0.0,31,0.00,,,0.00,meteohub,2013-01-18 03:17:00,
2013-01-17 19:22:00,60.1,29.3,30.16,South,180,0.0,0.0,31,0.00,,,0.00,meteohub,2013-01-18 03:22:00,
2013-01-17 19:27:00,59.7,29.8,30.16,South,180,0.0,0.0,32,0.00,,,0.00,meteohub,2013-01-18 03:27:00,
2013-01-17 19:32:00,59.4,29.5,30.16,South,180,0.0,0.0,32,0.00,,,0.00,meteohub,2013-01-18 03:32:00,
2013-01-17 19:37:00,59.2,29.3,30.16,South,180,0.0,0.0,32,0.00,,,0.00,meteohub,2013-01-18 03:37:00,
2013-01-17 19:42:00,59.2,30.0,30.16,South,180,0.0,1.0,33,0.00,,,0.00,meteohub,2013-01-18 03:42:00,
2013-01-17 19:47:00,58.8,29.8,30.16,South,180,0.0,1.0,33,0.00,,,0.00,meteohub,2013-01-18 03:47:00,
2013-01-17 19:52:00,58.6,29.7,30.16,South,180,0.0,1.0,33,0.00,,,0.00,meteohub,2013-01-18 03:52:00,
2013-01-17 19:57:00,58.3,30.0,30.17,South,180,0.0,1.0,34,0.00,,,0.00,meteohub,2013-01-18 03:57:00,
2013-01-17 20:02:00,57.9,28.9,30.17,South,180,0.0,0.0,33,0.00,,,0.00,meteohub,2013-01-18 04:02:00,
2013-01-17 20:07:00,57.6,29.5,30.17,South,180,0.0,0.0,34,0.00,,,0.00,meteohub,2013-01-18 04:07:00,
2013-01-17 20:12:00,57.4,29.3,30.17,South,180,0.0,0.0,34,0.00,,,0.00,meteohub,2013-01-18 04:12:00,
2013-01-17 20:17:00,56.8,31.5,30.17,South,180,0.0,0.0,38,0.00,,,0.00,meteohub,2013-01-18 04:17:00,
2013-01-17 20:22:00,56.5,31.8,30.17,South,180,0.0,0.0,39,0.00,,,0.00,meteohub,2013-01-18 04:22:00,
2013-01-17 20:27:00,55.8,31.8,30.17,South,180,0.0,0.0,40,0.00,,,0.00,meteohub,2013-01-18 04:27:00,
2013-01-17 20:32:00,55.0,32.4,30.17,South,180,0.0,0.0,42,0.00,,,0.00,meteohub,2013-01-18 04:32:00,
2013-01-17 20:37:00,54.7,32.0,30.17,South,180,0.0,0.0,42,0.00,,,0.00,meteohub,2013-01-18 04:37:00,
2013-01-17 20:42:00,54.3,30.6,30.17,South,180,0.0,1.0,40,0.00,,,0.00,meteohub,2013-01-18 04:42:00,
2013-01-17 20:47:00,54.1,30.9,30.17,South,180,0.0,1.0,41,0.00,,,0.00,meteohub,2013-01-18 04:47:00,
2013-01-17 20:52:00,54.1,30.4,30.17,South,180,0.0,1.0,40,0.00,,,0.00,meteohub,2013-01-18 04:52:00,
2013-01-17 20:57:00,54.1,29.7,30.17,South,180,0.0,1.0,39,0.00,,,0.00,meteohub,2013-01-18 04:57:00,
2013-01-17 21:02:00,54.3,29.8,30.17,South,180,0.0,0.0,39,0.00,,,0.00,meteohub,2013-01-18 05:02:00,
2013-01-17 21:03:00,54.3,29.8,30.17,South,180,0.0,0.0,39,0.00,,,0.00,meteohub,2013-01-18 05:03:00,
2013-01-17 21:04:00,54.3,29.8,30.17,South,180,0.0,0.0,39,0.00,,,0.00,meteohub,2013-01-18 05:04:00,
2013-01-17 21:09:00,54.5,30.0,30.17,South,180,0.0,0.0,39,0.00,,,0.00,meteohub,2013-01-18 05:09:00,
2013-01-17 21:14:00,54.7,30.9,30.17,South,180,0.0,0.0,40,0.00,,,0.00,meteohub,2013-01-18 05:14:00,
2013-01-17 21:19:00,54.7,31.5,30.17,South,180,0.0,0.0,41,0.00,,,0.00,meteohub,2013-01-18 05:19:00,
2013-01-17 21:24:00,54.5,30.0,30.17,South,180,0.0,0.0,39,0.00,,,0.00,meteohub,2013-01-18 05:24:00,
2013-01-17 21:29:00,54.5,29.5,30.17,South,180,0.0,0.0,38,0.00,,,0.00,meteohub,2013-01-18 05:29:00,
2013-01-17 21:34:00,54.3,31.1,30.17,South,180,0.0,0.0,41,0.00,,,0.00,meteohub,2013-01-18 05:34:00,
2013-01-17 21:39:00,54.0,30.7,30.17,South,180,0.0,0.0,41,0.00,,,0.00,meteohub,2013-01-18 05:39:00,
2013-01-17 21:45:00,53.8,30.0,30.17,South,180,0.0,0.0,40,0.00,,,0.00,meteohub,2013-01-18 05:45:00,
2013-01-17 21:50:00,53.4,30.4,30.17,South,180,0.0,0.0,41,0.00,,,0.00,meteohub,2013-01-18 05:50:00,
2013-01-17 21:55:00,53.1,29.3,30.17,South,180,0.0,0.0,40,0.00,,,0.00,meteohub,2013-01-18 05:55:00,
2013-01-17 22:00:00,52.9,29.8,30.17,South,180,0.0,0.0,41,0.00,,,0.00,meteohub,2013-01-18 06:00:00,
2013-01-17 22:05:00,52.5,28.2,30.17,South,180,0.0,0.0,39,0.00,,,0.00,meteohub,2013-01-18 06:05:00,
2013-01-17 22:10:00,52.5,28.9,30.17,South,180,0.0,1.0,40,0.00,,,0.00,meteohub,2013-01-18 06:10:00,
2013-01-17 22:15:00,52.3,29.3,30.17,South,180,0.0,1.0,41,0.00,,,0.00,meteohub,2013-01-18 06:15:00,
2013-01-17 22:21:00,52.2,29.8,30.17,South,180,0.0,1.0,42,0.00,,,0.00,meteohub,2013-01-18 06:21:00,
2013-01-17 22:26:00,52.0,30.2,30.17,South,180,0.0,0.0,43,0.00,,,0.00,meteohub,2013-01-18 06:26:00,
2013-01-17 22:31:00,51.6,30.4,30.17,South,180,0.0,0.0,44,0.00,,,0.00,meteohub,2013-01-18 06:31:00,
2013-01-17 22:36:00,51.4,29.1,30.17,South,180,0.0,0.0,42,0.00,,,0.00,meteohub,2013-01-18 06:36:00,
2013-01-17 22:41:00,51.4,30.2,30.17,South,180,0.0,0.0,44,0.00,,,0.00,meteohub,2013-01-18 06:41:00,
2013-01-17 22:46:00,51.3,28.9,30.17,South,180,0.0,0.0,42,0.00,,,0.00,meteohub,2013-01-18 06:46:00,
2013-01-17 22:51:00,51.1,29.3,30.17,South,180,0.0,0.0,43,0.00,,,0.00,meteohub,2013-01-18 06:51:00,
2013-01-17 22:56:00,51.1,28.8,30.17,South,180,0.0,0.0,42,0.00,,,0.00,meteohub,2013-01-18 06:56:00,
2013-01-17 23:01:00,51.1,28.2,30.17,South,180,0.0,0.0,41,0.00,,,0.00,meteohub,2013-01-18 07:01:00,
2013-01-17 23:06:00,50.9,29.1,30.17,South,180,0.0,0.0,43,0.00,,,0.00,meteohub,2013-01-18 07:06:00,
2013-01-17 23:11:00,50.7,29.7,30.17,South,180,0.0,0.0,44,0.00,,,0.00,meteohub,2013-01-18 07:11:00,
2013-01-17 23:16:00,50.2,30.7,30.17,South,180,0.0,0.0,47,0.00,,,0.00,meteohub,2013-01-18 07:16:00,
2013-01-17 23:22:00,49.5,30.0,30.17,South,180,2.0,2.0,47,0.00,,,0.00,meteohub,2013-01-18 07:22:00,
2013-01-17 23:27:00,49.5,29.5,30.17,South,180,0.0,2.0,46,0.00,,,0.00,meteohub,2013-01-18 07:27:00,
2013-01-17 23:32:00,49.6,29.7,30.17,South,180,0.0,2.0,46,0.00,,,0.00,meteohub,2013-01-18 07:32:00,
2013-01-17 23:37:00,49.5,30.0,30.18,South,180,0.0,2.0,47,0.00,,,0.00,meteohub,2013-01-18 07:37:00,
2013-01-17 23:42:00,49.3,30.9,30.18,South,180,0.0,1.0,49,0.00,,,0.00,meteohub,2013-01-18 07:42:00,
2013-01-17 23:47:00,49.3,32.0,30.18,South,180,0.0,1.0,51,0.00,,,0.00,meteohub,2013-01-18 07:47:00,
2013-01-17 23:52:00,49.1,31.8,30.18,South,180,0.0,1.0,51,0.00,,,0.00,meteohub,2013-01-18 07:52:00,
2013-01-17 23:57:00,48.9,30.0,30.18,South,180,0.0,0.0,48,0.00,,,0.00,meteohub,2013-01-18 07:57:00,